This is the latest recevied weather packets stored in our database for station/object KC3HIX. If no packets are shown the sender has not sent any weather packets the latest 10 day(s).
| Time | Temp. | Humidity | Pressure | Rain* | Wind** | Luminosity | Snow |
|---|---|---|---|---|---|---|---|
| 1777755604 | 13.89° C | 44% | 1012 hPa | 0 mm | - | - | - |
| 1777749904 | 13.89° C | 41% | 1013 hPa | 0 mm | - | - | - |
| 1777749004 | 12.78° C | 45% | 1013 hPa | 0 mm | - | - | - |
| 1777748403 | 12.78° C | 44% | 1013.4 hPa | 0 mm | - | - | - |
| 1777747203 | 13.33° C | 43% | 1013.4 hPa | 0 mm | - | - | - |
| 1777746903 | 13.33° C | 42% | 1013.4 hPa | 0 mm | - | - | - |
| 1777746003 | 14.44° C | 38% | 1013.7 hPa | 0 mm | - | - | - |
| 1777745703 | 14.44° C | 40% | 1013.4 hPa | 0 mm | - | - | - |
| 1777744803 | 15° C | 43% | 1013.7 hPa | 0 mm | - | - | - |
| 1777743003 | 14.44° C | 43% | 1013.7 hPa | 0 mm | - | - | - |
| 1777741509 | 15° C | 42% | 1013.7 hPa | 0 mm | - | - | - |
| 1777738809 | 13.33° C | 56% | 1014.1 hPa | 0 mm | - | - | - |
| 1777738209 | 13.33° C | 52% | 1014.1 hPa | 0 mm | - | - | - |
| 1777737609 | 12.22° C | 51% | 1014.1 hPa | 0 mm | - | - | - |
| 1777734009 | 11.67° C | 46% | 1014.1 hPa | 0 mm | - | - | - |
| 1777730708 | 12.22° C | 49% | 1014.4 hPa | 0 mm | - | - | - |
| 1777730109 | 13.33° C | 49% | 1014.4 hPa | 0 mm | - | - | - |
| 1777728908 | 12.22° C | 56% | 1014.4 hPa | 0 mm | - | - | - |
| 1777728608 | 11.67° C | 59% | 1014.8 hPa | 0 mm | - | - | - |
| 1777728308 | 11.11° C | 60% | 1014.8 hPa | 0 mm | - | - | - |
| 1777725308 | 9.44° C | 73% | 1015.1 hPa | 0 mm | - | - | - |
| 1777725008 | 9.44° C | 68% | 1014.8 hPa | 0 mm | - | - | - |
| 1777721708 | 5.56° C | 99% | 1014.8 hPa | 0 mm | - | - | - |
| 1777719308 | 3.33° C | 99% | 1014.8 hPa | 0 mm | - | - | - |
| 1777718729 | 2.78° C | 99% | 1014.4 hPa | 0 mm | - | - | - |
* Rain latest hour (hover to see other rain measurements)
** Current wind speed in m/s (hover to see current wind gust speed)